Bville, New York
Current Conditions -  °F | °C
As of 6:54 AM on Thursday 29 Jan 2015 (Local Time) from KFZY Reporting Station
Clear Clear  
Wind Chill: -3°   Ceiling: Unl
Heat Index:   Visibility: 10mi
Dew Point: -1°   Wind: 5mph
Humidity: 73%   Direction: 120°ESE
Pressure: 30.22"   Gusts: NA
Location:  43.1825°N, 76.3664°W
Report Text: KFZY 291154Z AUTO 12004KT 10SM CLR M14/M18 A3022 RMK AO2 SLP244 I6000 T11441183 11139 21172 58020
Loading
Personal Weather Stations






























Interactive Weather Map New forecast layout! Learn more

10-Day Weather Forecast

Advertisements
Track Severe Weather on mobile